Time;durP1;ratioP1;P1;durP2;ratioP2;P2;SDS_P1;SDS_P2;PMS_P1;PMS_P2;Temp;Humidity;BMP_temperature;BMP_pressure;BME280_temperature;BME280_humidity;BME280_pressure;Samples;Min_cycle;Max_cycle;Signal;HPM_P1;HPM_P2
2022/11/09 00:01:00;;;;;;;;;;;;;;;11.47;71.36;100333.13;5057210;28;20377;-32
2022/11/09 00:03:25;;;;;;;;;;;;;;;11.46;71.78;100329.59;5056920;28;20381;-34
2022/11/09 00:05:56;;;;;;;;;;;;;;;11.45;71.53;100321.72;5074453;28;19952;-33
2022/11/09 00:08:22;;;;;;;;;;;;;;;11.45;71.47;100324.34;5055969;28;20011;-33
2022/11/09 00:10:48;;;;;;;;;;;;;;;11.41;71.74;100324.41;5064055;28;19912;-33
2022/11/09 00:13:13;;;;;;;;;;;;;;;11.41;71.61;100321.75;5074213;28;19970;-33
2022/11/09 00:15:38;;;;;;;;;;;;;;;11.41;71.44;100315.63;5051600;28;19958;-33
2022/11/09 00:18:04;;;;;;;;;;;;;;;11.38;71.75;100319.19;5073102;28;19966;-33
2022/11/09 00:20:29;;;;;;;;;;;;;;;11.38;71.95;100313.91;5071231;28;19920;-32
2022/11/09 00:22:54;;;;;;;;;;;;;;;11.37;71.71;100320.06;5054931;28;19917;-34
2022/11/09 00:25:19;;;;;;;;;;;;;;;11.36;71.90;100314.81;5066776;28;20035;-34
2022/11/09 00:27:45;;;;;;;;;;;;;;;11.36;71.66;100310.44;5050656;28;20011;-33
2022/11/09 00:30:10;;;;;;;;;;;;;;;11.35;71.60;100316.63;5061320;28;20021;-32
2022/11/09 00:32:35;;;;;;;;;;;;;;;11.35;71.67;100313.97;5070082;28;20054;-33
2022/11/09 00:35:01;;;;;;;;;;;;;;;11.34;71.73;100321.91;5055312;28;20285;-33
2022/11/09 00:37:28;;;;;;;;;;;;;;;11.33;71.82;100307.84;5053829;28;20301;-33
2022/11/09 00:39:53;;;;;;;;;;;;;;;11.33;71.79;100304.34;5072100;28;19923;-33
2022/11/09 00:42:18;;;;;;;;;;;;;;;11.32;72.15;100313.13;5072746;28;19916;-31
2022/11/09 00:44:44;;;;;;;;;;;;;;;11.32;72.04;100305.22;5063716;28;19921;-34
2022/11/09 00:47:09;;;;;;;;;;;;;;;11.32;72.13;100308.75;5069706;28;19917;-31
2022/11/09 00:49:34;;;;;;;;;;;;;;;11.31;72.01;100307.00;5069659;28;19920;-32
2022/11/09 00:51:59;;;;;;;;;;;;;;;11.31;72.00;100296.44;5068832;28;19917;-33
2022/11/09 00:54:27;;;;;;;;;;;;;;;11.31;71.79;100295.56;5064921;28;19962;-33
2022/11/09 00:56:52;;;;;;;;;;;;;;;11.31;71.98;100300.84;5064915;28;19923;-33
2022/11/09 00:59:18;;;;;;;;;;;;;;;11.28;72.18;100294.72;5065198;28;19999;-33
2022/11/09 01:01:46;;;;;;;;;;;;;;;11.29;72.03;100303.50;5066669;28;20024;-33
2022/11/09 01:04:11;;;;;;;;;;;;;;;11.29;72.10;100319.34;5063738;28;19923;-33
2022/11/09 01:06:37;;;;;;;;;;;;;;;11.29;72.25;100314.06;5064499;28;19917;-33
2022/11/09 01:09:02;;;;;;;;;;;;;;;11.28;71.95;100312.34;5067320;28;19936;-33
2022/11/09 01:11:27;;;;;;;;;;;;;;;11.27;71.94;100310.59;5068412;28;19924;-33
2022/11/09 01:13:57;;;;;;;;;;;;;;;11.27;72.25;100316.72;5070186;28;19921;-33
2022/11/09 01:16:22;;;;;;;;;;;;;;;11.27;71.87;100313.25;5031119;28;19924;-33
2022/11/09 01:18:50;;;;;;;;;;;;;;;11.27;71.98;100305.31;5067374;28;19930;-32
2022/11/09 01:21:16;;;;;;;;;;;;;;;11.26;72.29;100304.44;5070994;28;20296;-33
2022/11/09 01:23:41;;;;;;;;;;;;;;;11.27;72.28;100310.59;5058627;28;20008;-32
2022/11/09 01:26:08;;;;;;;;;;;;;;;11.27;72.26;100305.31;5066256;28;20039;-33
2022/11/09 01:28:33;;;;;;;;;;;;;;;11.26;72.08;100300.91;5053962;28;19972;-33
2022/11/09 01:31:39;;;;;;;;;;;;;;;11.25;72.38;100302.72;5061178;28;19962;-33
2022/11/09 01:34:05;;;;;;;;;;;;;;;11.25;72.44;100285.97;5040088;28;19959;-33
2022/11/09 01:36:30;;;;;;;;;;;;;;;11.24;72.43;100295.66;5050804;28;20377;-33
2022/11/09 01:38:58;;;;;;;;;;;;;;;11.24;72.33;100289.53;5066528;28;20393;-33
2022/11/09 01:41:29;;;;;;;;;;;;;;;11.25;72.57;100285.97;5045955;28;19966;-33
2022/11/09 01:44:05;;;;;;;;;;;;;;;11.23;72.42;100278.09;5045184;28;19916;-33
2022/11/09 01:46:50;;;;;;;;;;;;;;;11.24;72.18;100276.34;5068344;28;19923;-34
2022/11/09 01:49:23;;;;;;;;;;;;;;;11.23;72.54;100278.09;5050056;28;20289;-32
2022/11/09 01:51:50;;;;;;;;;;;;;;;11.24;72.59;100284.25;5065499;28;19916;-32
2022/11/09 01:54:33;;;;;;;;;;;;;;;11.23;72.34;100278.09;5054642;28;20377;-31
2022/11/09 01:57:17;;;;;;;;;;;;;;;11.24;72.33;100278.97;5052447;28;19920;-33
2022/11/09 01:59:43;;;;;;;;;;;;;;;11.24;72.42;100282.47;5064444;28;20452;-34
2022/11/09 02:02:08;;;;;;;;;;;;;;;11.24;72.65;100268.41;5050018;28;20389;-32
2022/11/09 02:04:37;;;;;;;;;;;;;;;11.23;72.74;100267.53;5069868;28;19917;-34
2022/11/09 02:07:06;;;;;;;;;;;;;;;11.25;72.70;100264.88;5068328;28;19921;-33
2022/11/09 02:09:37;;;;;;;;;;;;;;;11.26;72.31;100269.25;5052980;28;19920;-34
2022/11/09 02:12:02;;;;;;;;;;;;;;;11.27;72.64;100257.81;5047900;28;19921;-33
2022/11/09 02:14:28;;;;;;;;;;;;;;;11.27;72.33;100261.28;5066415;28;19931;-33
2022/11/09 02:16:53;;;;;;;;;;;;;;;11.28;72.51;100259.53;5066441;28;20042;-33
2022/11/09 02:19:21;;;;;;;;;;;;;;;11.28;72.26;100260.38;5066005;28;19917;-33
2022/11/09 02:21:47;;;;;;;;;;;;;;;11.29;72.11;100262.16;5069302;28;19921;-33
2022/11/09 02:24:16;;;;;;;;;;;;;;;11.30;72.43;100268.28;5050425;28;20020;-33
2022/11/09 02:26:47;;;;;;;;;;;;;;;11.32;72.03;100268.25;5045955;28;19928;-33
2022/11/09 02:29:13;;;;;;;;;;;;;;;11.32;72.22;100261.22;5053570;28;20023;-33
2022/11/09 02:31:41;;;;;;;;;;;;;;;11.32;71.88;100245.38;5043587;28;19917;-32
2022/11/09 02:34:07;;;;;;;;;;;;;;;11.35;72.11;100245.31;5048174;28;19923;-32
2022/11/09 02:36:38;;;;;;;;;;;;;;;11.35;72.02;100255.88;5052755;28;19932;-32
2022/11/09 02:39:04;;;;;;;;;;;;;;;11.36;72.05;100249.69;5074362;28;20007;-32
2022/11/09 02:41:42;;;;;;;;;;;;;;;11.37;71.67;100248.78;5069204;28;20007;-33
2022/11/09 02:44:07;;;;;;;;;;;;;;;11.39;71.80;100248.75;5050329;28;19939;-31
2022/11/09 02:46:34;;;;;;;;;;;;;;;11.40;71.72;100256.66;5052523;28;20291;-32
2022/11/09 02:49:00;;;;;;;;;;;;;;;11.41;71.74;100260.19;5056598;28;20015;-32
2022/11/09 02:51:25;;;;;;;;;;;;;;;11.44;72.05;100253.97;5074184;28;20023;-32
2022/11/09 02:53:51;;;;;;;;;;;;;;;11.44;71.92;100238.13;5074558;28;19916;-32
2022/11/09 02:56:16;;;;;;;;;;;;;;;11.46;71.70;100238.94;5064958;28;19916;-33
2022/11/09 02:58:41;;;;;;;;;;;;;;;11.46;72.05;100236.28;5067881;28;19920;-31
2022/11/09 03:01:06;;;;;;;;;;;;;;;11.47;72.14;100238.06;5067027;28;19970;-31
2022/11/09 03:03:31;;;;;;;;;;;;;;;11.47;71.95;100232.78;5073610;28;19940;-32
2022/11/09 03:06:06;;;;;;;;;;;;;;;11.48;72.22;100238.03;5072613;28;19920;-32
2022/11/09 03:08:31;;;;;;;;;;;;;;;11.50;72.13;100237.97;5066559;28;20031;-32
2022/11/09 03:10:59;;;;;;;;;;;;;;;11.50;72.17;100243.25;5073690;28;20011;-33
2022/11/09 03:13:24;;;;;;;;;;;;;;;11.51;72.14;100256.44;5072421;28;19924;-33
2022/11/09 03:15:56;;;;;;;;;;;;;;;11.50;72.14;100265.25;5074072;28;19916;-31
2022/11/09 03:18:24;;;;;;;;;;;;;;;11.51;71.93;100276.72;5073189;28;19920;-35
2022/11/09 03:20:49;;;;;;;;;;;;;;;11.51;71.82;100287.28;5049145;28;20393;-32
2022/11/09 03:23:14;;;;;;;;;;;;;;;11.52;71.81;100278.44;5071980;28;19952;-35
2022/11/09 03:25:39;;;;;;;;;;;;;;;11.53;71.83;100274.91;5070760;28;19956;-35
2022/11/09 03:28:08;;;;;;;;;;;;;;;11.53;71.65;100281.06;5055704;28;19951;-35
2022/11/09 03:30:33;;;;;;;;;;;;;;;11.54;71.98;100274.00;5070060;28;19931;-34
2022/11/09 03:32:59;;;;;;;;;;;;;;;11.55;72.04;100283.66;5069950;28;19921;-35
2022/11/09 03:35:24;;;;;;;;;;;;;;;11.55;72.16;100291.59;5068352;28;20385;-35
2022/11/09 03:37:52;;;;;;;;;;;;;;;11.57;72.11;100296.84;5074834;28;19916;-35
2022/11/09 03:40:18;;;;;;;;;;;;;;;11.57;71.86;100291.56;5069063;28;19990;-33
2022/11/09 03:42:44;;;;;;;;;;;;;;;11.58;72.19;100293.31;5074202;28;19916;-35
2022/11/09 03:45:09;;;;;;;;;;;;;;;11.58;72.23;100288.91;5076817;28;19983;-35
2022/11/09 03:47:34;;;;;;;;;;;;;;;11.57;72.10;100281.84;5048129;28;19964;-35
2022/11/09 03:50:00;;;;;;;;;;;;;;;11.58;72.21;100278.34;5068819;28;19920;-34
2022/11/09 03:52:25;;;;;;;;;;;;;;;11.58;72.26;100280.97;5064428;28;19952;-35
2022/11/09 03:54:56;;;;;;;;;;;;;;;11.58;72.32;100267.78;5074119;28;19943;-35
2022/11/09 03:57:21;;;;;;;;;;;;;;;11.58;72.49;100267.78;5070793;28;19916;-33
2022/11/09 03:59:47;;;;;;;;;;;;;;;11.59;72.17;100269.50;5067564;28;20042;-35
2022/11/09 04:02:13;;;;;;;;;;;;;;;11.59;72.49;100269.50;5065444;28;19921;-33
2022/11/09 04:04:38;;;;;;;;;;;;;;;11.59;72.48;100280.06;5054113;28;19924;-34
2022/11/09 04:07:03;;;;;;;;;;;;;;;11.59;72.49;100273.91;5072588;28;19917;-35
2022/11/09 04:09:28;;;;;;;;;;;;;;;11.59;72.24;100280.06;5070126;28;19927;-35
2022/11/09 04:11:54;;;;;;;;;;;;;;;11.59;72.54;100281.81;5050180;28;20365;-35
2022/11/09 04:14:19;;;;;;;;;;;;;;;11.58;72.69;100291.53;5068026;28;20258;-35
2022/11/09 04:16:44;;;;;;;;;;;;;;;11.58;72.33;100288.91;5066625;28;20436;-34
2022/11/09 04:19:09;;;;;;;;;;;;;;;11.58;72.29;100283.63;5068044;28;19969;-35
2022/11/09 04:21:34;;;;;;;;;;;;;;;11.57;72.63;100287.13;5074664;28;20018;-35
2022/11/09 04:24:00;;;;;;;;;;;;;;;11.58;72.62;100272.16;5074819;28;19912;-35
2022/11/09 04:26:25;;;;;;;;;;;;;;;11.58;72.71;100272.16;5087217;28;19912;-34
2022/11/09 04:28:50;;;;;;;;;;;;;;;11.58;72.53;100274.81;5082374;28;19916;-34
2022/11/09 04:31:16;;;;;;;;;;;;;;;11.56;72.51;100280.13;5074565;28;19913;-34
2022/11/09 04:33:41;;;;;;;;;;;;;;;11.58;72.75;100288.91;5066861;28;20011;-34
2022/11/09 04:36:07;;;;;;;;;;;;;;;11.57;72.80;100276.56;5053801;28;19931;-34
2022/11/09 04:38:33;;;;;;;;;;;;;;;11.57;72.55;100281.84;5053574;28;20184;-34
2022/11/09 04:41:02;;;;;;;;;;;;;;;11.56;72.80;100285.41;5067311;28;20065;-34
2022/11/09 04:43:27;;;;;;;;;;;;;;;11.57;72.71;100283.66;5058821;28;20007;-34
2022/11/09 04:45:57;;;;;;;;;;;;;;;11.57;72.47;100281.00;5067272;28;20150;-34
2022/11/09 04:48:23;;;;;;;;;;;;;;;11.58;72.73;100285.38;5053373;28;20585;-34
2022/11/09 04:50:48;;;;;;;;;;;;;;;11.58;72.76;100283.63;5051534;28;19927;-34
2022/11/09 04:53:14;;;;;;;;;;;;;;;11.58;72.84;100288.91;5059375;28;19916;-34
2022/11/09 04:55:40;;;;;;;;;;;;;;;11.59;72.54;100284.47;5068514;28;19917;-34
2022/11/09 04:58:05;;;;;;;;;;;;;;;11.59;72.72;100285.34;5077082;28;19950;-34
2022/11/09 05:00:30;;;;;;;;;;;;;;;11.60;72.79;100289.72;5075387;28;20380;-34
2022/11/09 05:03:00;;;;;;;;;;;;;;;11.60;72.63;100283.59;5075112;28;20292;-34
2022/11/09 05:05:25;;;;;;;;;;;;;;;11.60;72.91;100278.31;5074877;28;19913;-34
2022/11/09 05:07:50;;;;;;;;;;;;;;;11.60;73.09;100288.88;5075077;28;19923;-34
2022/11/09 05:10:17;;;;;;;;;;;;;;;11.59;73.13;100290.63;5064507;28;19960;-34
2022/11/09 05:12:43;;;;;;;;;;;;;;;11.61;72.91;100298.53;5038963;28;20385;-34
2022/11/09 05:15:08;;;;;;;;;;;;;;;11.60;73.24;100297.66;5073743;28;19923;-34
2022/11/09 05:17:33;;;;;;;;;;;;;;;11.60;73.53;100296.78;5075238;28;20326;-34
2022/11/09 05:19:58;;;;;;;;;;;;;;;11.60;73.84;100299.44;5075464;28;19924;-34
2022/11/09 05:25:08;;;;;;;;;;;;;;;11.60;74.02;100302.94;5073798;28;19923;-34
2022/11/09 05:27:33;;;;;;;;;;;;;;;11.63;74.38;100307.28;5052588;28;19921;-35
2022/11/09 05:29:58;;;;;;;;;;;;;;;11.61;75.00;100304.66;5049494;28;19920;-34
2022/11/09 05:32:23;;;;;;;;;;;;;;;11.63;74.82;100308.16;5074429;28;19912;-34
2022/11/09 05:34:48;;;;;;;;;;;;;;;11.64;75.18;100293.19;5056950;28;19912;-34
2022/11/09 05:37:16;;;;;;;;;;;;;;;11.66;75.54;100288.72;5074765;28;19917;-34
2022/11/09 05:39:42;;;;;;;;;;;;;;;11.67;75.49;100279.91;5073077;28;20401;-34
2022/11/09 05:42:09;;;;;;;;;;;;;;;11.69;75.33;100275.47;5069589;28;19923;-35
2022/11/09 05:44:34;;;;;;;;;;;;;;;11.70;75.60;100269.28;5081125;28;19962;-35
2022/11/09 05:47:00;;;;;;;;;;;;;;;11.71;75.43;100272.81;5076004;28;19916;-34
2022/11/09 05:49:25;;;;;;;;;;;;;;;11.72;75.90;100270.13;5056431;28;19920;-35
2022/11/09 05:51:50;;;;;;;;;;;;;;;11.74;75.84;100265.66;5072761;28;19917;-34
2022/11/09 05:54:15;;;;;;;;;;;;;;;11.75;75.89;100263.91;5073668;28;20288;-34
2022/11/09 05:56:40;;;;;;;;;;;;;;;11.77;75.79;100265.59;5071395;28;20281;-34
2022/11/09 05:59:15;;;;;;;;;;;;;;;11.80;75.73;100259.38;5072015;28;20407;-34
2022/11/09 06:01:40;;;;;;;;;;;;;;;11.82;75.86;100254.94;5046851;28;19970;-34
2022/11/09 06:04:05;;;;;;;;;;;;;;;11.83;75.72;100246.13;5074176;28;19940;-34
2022/11/09 06:06:30;;;;;;;;;;;;;;;11.83;75.58;100235.53;5072841;28;19960;-35
2022/11/09 06:08:55;;;;;;;;;;;;;;;11.84;75.38;100234.63;5072156;28;19947;-34
2022/11/09 06:11:22;;;;;;;;;;;;;;;11.85;75.40;100239.03;5072903;28;19997;-34
2022/11/09 06:13:48;;;;;;;;;;;;;;;11.86;75.17;100235.50;5073295;28;19918;-34
2022/11/09 06:16:13;;;;;;;;;;;;;;;11.86;75.38;100235.50;5073282;28;20375;-34
2022/11/09 06:18:38;;;;;;;;;;;;;;;11.86;75.41;100240.78;5073815;28;19957;-34
2022/11/09 06:21:05;;;;;;;;;;;;;;;11.85;75.45;100249.63;5072886;28;19916;-31
2022/11/09 06:23:30;;;;;;;;;;;;;;;11.86;75.63;100251.34;5072723;28;19923;-34
2022/11/09 06:25:56;;;;;;;;;;;;;;;11.86;75.75;100255.75;5053184;28;20032;-34
2022/11/09 06:28:21;;;;;;;;;;;;;;;11.86;75.65;100269.84;5072744;28;19923;-34
2022/11/09 06:30:46;;;;;;;;;;;;;;;11.86;75.55;100264.56;5072955;28;19913;-34
2022/11/09 06:33:12;;;;;;;;;;;;;;;11.86;75.53;100277.75;5054074;28;19916;-34
2022/11/09 06:35:37;;;;;;;;;;;;;;;11.88;76.07;100275.09;5071959;28;20003;-35
2022/11/09 06:38:03;;;;;;;;;;;;;;;11.86;75.46;100280.41;5071509;28;20297;-35
2022/11/09 06:40:30;;;;;;;;;;;;;;;11.86;75.27;100290.97;5044482;28;20278;-34
2022/11/09 06:42:58;;;;;;;;;;;;;;;11.87;75.42;100294.50;5072444;28;19952;-34
2022/11/09 06:45:26;;;;;;;;;;;;;;;11.87;75.64;100284.78;5072775;28;19916;-34
2022/11/09 06:47:54;;;;;;;;;;;;;;;11.86;75.26;100290.97;5071901;28;19916;-35
2022/11/09 06:50:19;;;;;;;;;;;;;;;11.85;75.48;100297.16;5037875;28;19917;-35
2022/11/09 06:52:44;;;;;;;;;;;;;;;11.86;75.65;100304.19;5071522;28;19923;-33
2022/11/09 06:55:09;;;;;;;;;;;;;;;11.85;75.73;100288.38;5072491;28;20009;-34
2022/11/09 06:57:35;;;;;;;;;;;;;;;11.85;75.88;100306.84;5072602;28;19920;-34
2022/11/09 07:00:00;;;;;;;;;;;;;;;11.84;75.65;100308.63;5072862;28;20341;-35
2022/11/09 07:02:25;;;;;;;;;;;;;;;11.80;76.23;100309.59;5072809;28;19913;-34
2022/11/09 07:04:52;;;;;;;;;;;;;;;11.80;76.47;100314.88;5072523;28;19962;-34
2022/11/09 07:07:17;;;;;;;;;;;;;;;11.77;77.27;100317.59;5070340;28;19916;-34
2022/11/09 07:09:42;;;;;;;;;;;;;;;11.74;77.50;100310.59;5065197;28;20023;-34
2022/11/09 07:12:08;;;;;;;;;;;;;;;11.75;76.98;100322.91;5072299;28;19939;-33
2022/11/09 07:14:33;;;;;;;;;;;;;;;11.75;77.19;100322.91;5072008;28;20011;-35
2022/11/09 07:16:58;;;;;;;;;;;;;;;11.75;77.00;100322.03;5071775;28;20007;-34
2022/11/09 07:19:23;;;;;;;;;;;;;;;11.76;77.11;100324.66;5070951;28;20668;-34
2022/11/09 07:21:48;;;;;;;;;;;;;;;11.76;76.41;100318.47;5071945;28;20007;-34
2022/11/09 07:24:14;;;;;;;;;;;;;;;11.77;76.53;100331.66;5072862;28;19920;-34
2022/11/09 07:26:39;;;;;;;;;;;;;;;11.80;76.76;100320.16;5074838;28;19912;-34
2022/11/09 07:29:04;;;;;;;;;;;;;;;11.82;76.52;100331.59;5072505;28;19969;-34
2022/11/09 07:31:30;;;;;;;;;;;;;;;11.80;76.78;100334.25;5073681;28;19951;-34
2022/11/09 07:33:57;;;;;;;;;;;;;;;11.79;76.93;100323.72;5074998;28;19916;-34
2022/11/09 07:36:22;;;;;;;;;;;;;;;11.80;76.66;100318.41;5052890;28;20391;-34
2022/11/09 07:38:47;;;;;;;;;;;;;;;11.80;76.32;100317.50;5075636;28;19912;-34
2022/11/09 07:41:13;;;;;;;;;;;;;;;11.80;76.27;100314.88;5075586;28;19921;-34
2022/11/09 07:43:39;;;;;;;;;;;;;;;11.81;76.64;100303.44;5058901;28;19977;-34
2022/11/09 07:46:04;;;;;;;;;;;;;;;11.81;76.23;100327.22;5075699;28;20357;-34
2022/11/09 07:48:31;;;;;;;;;;;;;;;11.80;76.68;100330.72;5070124;28;19970;-35
2022/11/09 07:50:56;;;;;;;;;;;;;;;11.80;76.24;100330.72;5057425;28;19917;-32
2022/11/09 07:53:21;;;;;;;;;;;;;;;11.81;76.46;100327.22;5038037;28;19963;-32
2022/11/09 07:55:55;;;;;;;;;;;;;;;11.82;76.47;100328.94;5075519;28;20341;-32
2022/11/09 07:58:20;;;;;;;;;;;;;;;11.81;76.73;100338.63;5074925;28;19916;-32
2022/11/09 08:00:45;;;;;;;;;;;;;;;11.82;76.97;100328.94;5075528;28;19917;-32
2022/11/09 08:03:11;;;;;;;;;;;;;;;11.83;76.99;100327.19;5058252;28;20285;-32
2022/11/09 08:05:37;;;;;;;;;;;;;;;11.82;76.86;100318.38;5075470;28;19916;-32
2022/11/09 08:08:04;;;;;;;;;;;;;;;11.83;76.92;100335.09;5057149;28;19916;-32
2022/11/09 08:10:30;;;;;;;;;;;;;;;11.81;76.60;100324.56;5075700;28;19916;-33
2022/11/09 08:12:59;;;;;;;;;;;;;;;11.81;76.54;100332.50;5056771;28;19916;-33
2022/11/09 08:15:25;;;;;;;;;;;;;;;11.81;76.72;100335.97;5075134;28;19913;-33
2022/11/09 08:17:50;;;;;;;;;;;;;;;11.82;76.86;100342.16;5074764;28;19912;-33
2022/11/09 08:20:15;;;;;;;;;;;;;;;11.81;76.83;100348.34;5074677;28;20045;-31
2022/11/09 08:22:41;;;;;;;;;;;;;;;11.81;76.89;100345.69;5075346;28;19916;-34
2022/11/09 08:25:07;;;;;;;;;;;;;;;11.81;76.71;100349.19;5075146;28;19912;-34
2022/11/09 08:27:38;;;;;;;;;;;;;;;11.81;76.86;100353.63;5068531;28;19931;-34
2022/11/09 08:30:04;;;;;;;;;;;;;;;11.81;76.87;100354.47;5064214;28;19978;-34
2022/11/09 08:32:29;;;;;;;;;;;;;;;11.81;76.70;100349.19;5071586;28;20381;-34
2022/11/09 08:34:56;;;;;;;;;;;;;;;11.83;76.58;100350.97;5049934;28;19916;-34
2022/11/09 08:37:24;;;;;;;;;;;;;;;11.84;76.51;100353.53;5058028;28;19920;-34
2022/11/09 08:39:50;;;;;;;;;;;;;;;11.83;76.71;100354.44;5057291;28;19912;-34
2022/11/09 08:42:15;;;;;;;;;;;;;;;11.83;76.68;100346.53;5056963;28;20095;-34
2022/11/09 08:44:40;;;;;;;;;;;;;;;11.84;76.75;100358.81;5074905;28;19912;-34
2022/11/09 08:47:05;;;;;;;;;;;;;;;11.84;76.46;100366.75;5073517;28;19960;-34
2022/11/09 08:49:31;;;;;;;;;;;;;;;11.86;76.37;100361.44;5067588;28;19923;-34
2022/11/09 08:51:56;;;;;;;;;;;;;;;11.85;76.23;100360.59;5074750;28;19917;-35
2022/11/09 08:54:22;;;;;;;;;;;;;;;11.86;76.50;100364.97;5075842;28;19920;-34
2022/11/09 08:57:05;;;;;;;;;;;;;;;11.87;76.58;100369.34;5077077;28;20022;-34
2022/11/09 08:59:30;;;;;;;;;;;;;;;11.88;76.48;100381.69;5068585;28;20352;-34
2022/11/09 09:01:55;;;;;;;;;;;;;;;11.88;76.17;100363.19;5065083;28;20007;-34
2022/11/09 09:04:21;;;;;;;;;;;;;;;11.90;76.44;100366.66;5075176;28;20019;-35
2022/11/09 09:06:46;;;;;;;;;;;;;;;11.92;76.32;100374.53;5075667;28;20392;-34
2022/11/09 09:09:11;;;;;;;;;;;;;;;11.93;76.13;100384.22;5075048;28;19920;-34
2022/11/09 09:11:38;;;;;;;;;;;;;;;11.93;76.49;100385.09;5077210;28;19916;-34
2022/11/09 09:14:03;;;;;;;;;;;;;;;11.96;76.30;100383.28;5081798;28;20328;-34
2022/11/09 09:16:30;;;;;;;;;;;;;;;11.96;76.40;100376.22;5074208;28;19913;-34
2022/11/09 09:18:55;;;;;;;;;;;;;;;11.98;76.12;100378.84;5074238;28;20447;-34
2022/11/09 09:21:20;;;;;;;;;;;;;;;11.99;76.31;100368.25;5077710;28;19916;-34
2022/11/09 09:23:48;;;;;;;;;;;;;;;12.00;76.17;100382.34;5076326;28;19912;-34
2022/11/09 09:26:15;;;;;;;;;;;;;;;12.01;76.42;100376.16;5055741;28;19981;-34
2022/11/09 09:28:40;;;;;;;;;;;;;;;12.03;76.24;100374.31;5073188;28;19971;-34
2022/11/09 09:31:05;;;;;;;;;;;;;;;12.03;76.75;100354.06;5073643;28;19964;-32
2022/11/09 09:33:31;;;;;;;;;;;;;;;12.05;76.71;100356.69;5073764;28;19962;-34
2022/11/09 09:35:59;;;;;;;;;;;;;;;12.06;76.61;100353.16;5057364;28;19913;-32
2022/11/09 09:38:25;;;;;;;;;;;;;;;12.09;77.65;100368.97;5073179;28;19917;-32
2022/11/09 09:40:50;;;;;;;;;;;;;;;12.10;77.59;100359.25;5041248;28;20330;-32
2022/11/09 09:43:18;;;;;;;;;;;;;;;12.10;77.44;100370.69;5065320;28;19924;-32
2022/11/09 09:45:47;;;;;;;;;;;;;;;12.14;77.90;100367.06;5073427;28;19916;-32
2022/11/09 09:48:31;;;;;;;;;;;;;;;12.15;78.14;100362.69;5075690;28;20162;-34
2022/11/09 09:50:59;;;;;;;;;;;;;;;12.18;77.84;100363.47;5073424;28;19913;-34
2022/11/09 09:53:39;;;;;;;;;;;;;;;12.20;77.94;100360.78;5073887;28;20270;-34
2022/11/09 09:56:08;;;;;;;;;;;;;;;12.22;78.40;100364.28;5054993;28;20243;-34
2022/11/09 09:58:33;;;;;;;;;;;;;;;12.27;78.32;100364.22;5056617;28;20385;-32
2022/11/09 10:01:13;;;;;;;;;;;;;;;12.29;78.37;100367.66;5058210;28;19958;-32
2022/11/09 10:03:38;;;;;;;;;;;;;;;12.34;78.83;100373.72;5074146;28;19912;-32
2022/11/09 10:06:09;;;;;;;;;;;;;;;12.37;79.25;100376.31;5055056;28;19962;-33
2022/11/09 10:08:56;;;;;;;;;;;;;;;12.40;79.29;100378.88;5072415;28;19924;-34
2022/11/09 10:11:24;;;;;;;;;;;;;;;12.44;78.64;100369.97;5054589;28;20147;-32
2022/11/09 10:14:08;;;;;;;;;;;;;;;12.49;78.72;100369.00;5073311;28;19999;-33
2022/11/09 10:16:38;;;;;;;;;;;;;;;12.53;78.41;100365.38;5072946;28;20011;-32
2022/11/09 10:21:47;;;;;;;;;;;;;;;12.58;78.16;100379.41;5059791;28;19924;-34
2022/11/09 10:24:16;;;;;;;;;;;;;;;12.61;77.86;100366.13;5058137;28;19920;-34
2022/11/09 10:26:48;;;;;;;;;;;;;;;12.64;77.86;100365.16;5056550;28;20012;-34
2022/11/09 10:29:23;;;;;;;;;;;;;;;12.66;77.71;100352.75;5047393;28;19943;-34
2022/11/09 10:31:50;;;;;;;;;;;;;;;12.67;77.60;100355.38;5052320;28;19959;-34
2022/11/09 10:34:18;;;;;;;;;;;;;;;12.69;77.49;100356.22;5052342;28;19917;-34
2022/11/09 10:36:44;;;;;;;;;;;;;;;12.72;77.48;100364.97;5052347;28;19913;-34
2022/11/09 10:39:11;;;;;;;;;;;;;;;12.74;77.25;100363.19;5041696;28;19920;-34
2022/11/09 10:41:40;;;;;;;;;;;;;;;12.74;77.23;100356.09;5029321;28;19920;-34
2022/11/09 10:44:08;;;;;;;;;;;;;;;12.78;77.12;100362.19;5065533;28;19917;-34
2022/11/09 10:46:53;;;;;;;;;;;;;;;12.78;77.30;100356.91;5026105;28;19928;-34
2022/11/09 10:49:19;;;;;;;;;;;;;;;12.81;77.31;100346.25;5057698;28;19964;-34
2022/11/09 10:51:45;;;;;;;;;;;;;;;12.82;77.23;100348.00;5051832;28;19912;-34
2022/11/09 10:54:13;;;;;;;;;;;;;;;12.82;77.11;100333.00;5052187;28;19917;-34
2022/11/09 10:56:46;;;;;;;;;;;;;;;12.83;77.00;100340.00;5051643;28;20265;-34
2022/11/09 10:59:35;;;;;;;;;;;;;;;12.86;76.98;100346.13;5060322;28;19920;-34
2022/11/09 11:02:01;;;;;;;;;;;;;;;12.87;77.00;100338.16;5027941;28;20323;-34
2022/11/09 11:04:26;;;;;;;;;;;;;;;12.90;77.07;100338.09;5054672;28;20373;-34
2022/11/09 11:06:51;;;;;;;;;;;;;;;12.92;77.08;100335.41;5058367;28;20370;-34
2022/11/09 11:09:37;;;;;;;;;;;;;;;12.94;77.07;100337.09;5035965;28;19916;-34
2022/11/09 11:12:20;;;;;;;;;;;;;;;12.95;76.97;100327.38;5054222;28;19955;-34
2022/11/09 11:14:45;;;;;;;;;;;;;;;12.99;76.79;100333.47;5056366;28;20335;-34
2022/11/09 11:17:24;;;;;;;;;;;;;;;13.01;76.80;100339.59;5038451;28;19912;-34
2022/11/09 11:19:49;;;;;;;;;;;;;;;13.03;76.48;100335.13;5042061;28;19928;-34
2022/11/09 11:22:22;;;;;;;;;;;;;;;13.03;76.36;100330.72;5057722;28;19916;-34
2022/11/09 11:24:57;;;;;;;;;;;;;;;13.06;76.32;100337.69;5071486;28;19920;-34
2022/11/09 11:27:33;;;;;;;;;;;;;;;13.08;76.32;100338.53;5040155;28;19917;-34
2022/11/09 11:30:05;;;;;;;;;;;;;;;13.11;76.35;100348.19;5042828;28;19917;-34
2022/11/09 11:32:31;;;;;;;;;;;;;;;13.12;76.22;100345.50;5055327;28;19932;-34
2022/11/09 11:34:56;;;;;;;;;;;;;;;13.13;76.07;100344.59;5037963;28;19966;-34
2022/11/09 11:37:40;;;;;;;;;;;;;;;13.15;76.04;100349.84;5055694;28;19927;-34
2022/11/09 11:40:18;;;;;;;;;;;;;;;13.18;75.90;100355.91;5040757;28;19999;-34
2022/11/09 11:43:03;;;;;;;;;;;;;;;13.19;75.95;100346.22;5037621;28;19924;-34
2022/11/09 11:45:35;;;;;;;;;;;;;;;13.23;75.74;100347.03;5055225;28;19920;-34
2022/11/09 11:48:33;;;;;;;;;;;;;;;13.25;76.15;100345.19;5055686;28;19952;-34
2022/11/09 11:51:12;;;;;;;;;;;;;;;13.28;76.20;100345.13;4973837;28;20403;-34
2022/11/09 11:53:44;;;;;;;;;;;;;;;13.30;76.14;100348.56;4978338;28;19917;-34
2022/11/09 11:56:15;;;;;;;;;;;;;;;13.34;76.47;100339.66;5049357;28;19912;-34
2022/11/09 11:58:59;;;;;;;;;;;;;;;13.37;76.49;100338.72;5075356;28;19912;-34
2022/11/09 12:01:28;;;;;;;;;;;;;;;13.43;76.98;100338.53;5070147;28;19913;-34
2022/11/09 12:04:00;;;;;;;;;;;;;;;13.50;77.99;100342.78;5055301;28;20301;-34
2022/11/09 12:06:49;;;;;;;;;;;;;;;13.58;79.27;100338.16;5055350;28;19913;-34
2022/11/09 12:09:24;;;;;;;;;;;;;;;13.64;78.71;100337.13;5053353;28;20274;-34
2022/11/09 12:11:57;;;;;;;;;;;;;;;13.69;78.07;100332.59;5026881;28;19916;-34
2022/11/09 12:14:32;;;;;;;;;;;;;;;13.76;78.52;100333.28;5036978;28;19913;-34
2022/11/09 12:16:57;;;;;;;;;;;;;;;13.84;78.81;100333.06;5042606;28;19916;-34
2022/11/09 12:19:30;;;;;;;;;;;;;;;13.90;78.59;100326.72;5066361;28;19962;-34
2022/11/09 12:21:58;;;;;;;;;;;;;;;13.96;77.98;100322.09;5073412;28;19916;-34
2022/11/09 12:24:33;;;;;;;;;;;;;;;14.04;78.37;100321.03;5075112;28;20003;-34
2022/11/09 12:27:08;;;;;;;;;;;;;;;14.09;78.32;100317.31;5069441;28;19913;-33
2022/11/09 12:29:51;;;;;;;;;;;;;;;14.18;78.38;100315.31;5053173;28;19998;-33
2022/11/09 12:32:27;;;;;;;;;;;;;;;14.26;78.76;100317.72;5063031;28;19920;-34
2022/11/09 12:34:56;;;;;;;;;;;;;;;14.34;78.71;100315.72;5054636;28;19965;-34
2022/11/09 12:37:34;;;;;;;;;;;;;;;14.44;78.41;100306.53;5054800;28;19919;-34
2022/11/09 12:40:05;;;;;;;;;;;;;;;14.53;77.86;100317.78;5036919;28;19913;-34
2022/11/09 12:42:48;;;;;;;;;;;;;;;14.57;77.77;100314.13;5054401;28;19913;-34
2022/11/09 12:45:33;;;;;;;;;;;;;;;14.63;77.55;100311.25;5041380;28;19999;-34